Airfield :
LOGIN :

Register | Disclaimer

   EN    FR    IT 

 










Legend :    VFR   Marginal VFR   IFR   Intensive IFR   Very Intensive IFR
Visi :
Ceiling :
>= 8 km
>= 3000ft
5 to 8 km
1000 to 3000 ft
1500m to 5 km
500 to 1000 ft
800 to 1500m
200 to 500 ft
< 800m
< 200 ft
Symbols :   Thunderstorms  Fog  Heavy snow  Heavy precipitations  Wind > 20 kt
SIGMETs :     Misc.  Thunderstorms  Icing  Turbulence  Mountain Waves  Volcanic Ashes







- Airport Elevation : 55 ft
- IATA code : DSA
- Download approach charts


EGCN - Robin Hood Doncaster Sheffield

CURRENT METAR :
  • 161150Z 26010KT 9999 -SHRA FEW020 BKN030 BKN037 08/05 Q1001

EXPIRED METARs :
  • 161120Z 26010KT 9999 -SHRA SCT037 BKN045 08/06 Q1001
  • 161050Z 26012KT 9999 FEW013 SCT028 BKN037 08/06 Q1001
  • 161020Z 23017KT 8000 -SHRA SCT015 BKN020 09/07 Q1001
  • 160950Z 21016KT 9999 SCT021 BKN026 10/07 Q1001
  • 160920Z 21015KT 9999 FEW020 BKN031 09/07 Q1001

TAF TAF EGCN
Valid from the 16 at 12:00 until the 17 at 12:00 UTC


161105Z 1612/1712 26009KT 9999 SCT030
TEMPO 1612/1614 6000 RA
PROB30
TEMPO 1612/1614 3000 +RA BKN012
TEMPO 1701/1706 7000 SHRA BKN010
BECMG 1703/1706 33012KT
PROB30
TEMPO 1703/1706 34015G25KT 2500 SHRASN BKN004
No reported NOTAMs for that airfield.



MET'MAP, your aeronautical weather chart ! - Copyright ORBIFLY December 2007 - Disclaimer

ORBIFLY MET'MAP TEAM :

Programming & Development : Alexandra Zaïnal
Concept & Development : Baudouin d'Aumeries
Co-Development & Prog : Marc-Olivier Méhu
Technical & hardware support : Manuel Goepfert

Contact : metmap@orbifly.com




SOURCES & CREDITS :

   NOAA